Flight Track Log - Related Links

Times and Time Zones

All times are in EDT time to prevent confusion due to time zone crossing. See the PDT4314 flight status page for this flight to view local times or setup timezone preferences in your user account.

Time Position Orientation Groundspeed Altitude Reporting Facility
EDT Latitude Longitude Course Direction KTS MPH feet Rate Location/Type
Thu 04:51:31 PM 39.9000 -75.2333 323° Northwest 110 127 500  Level Philadelphia TRACON
Thu 04:52:43 PM 39.9167 -75.2833 294° West 137 158 2,300 1,478 Climbing Philadelphia TRACON
Thu 04:53:49 PM 39.9167 -75.3333 270° West 134 154 3,900 1,475 Climbing Philadelphia TRACON
Thu 04:54:00 PM 40.0193 -75.3693 323° Northwest  Level FlightAware Approximate
Thu 04:54:45 PM 39.9128 -75.3853 264° West 142 163 5,300  Level New York Center
Thu 04:55:00 PM 40.0699 -75.4183 339° North  Level FlightAware Approximate
Thu 04:55:45 PM 39.9319 -75.4244 303° West 134 154 6,700  Level New York Center
Thu 04:56:00 PM 40.1170 -75.4670 323° Northwest  Level FlightAware Approximate
Thu 04:56:45 PM 39.9494 -75.4608 302° West 134 154 7,900  Level New York Center
Thu 04:57:45 PM 39.9950 -75.4667 354° North 134 154 9,400 1,050 Climbing New York Center
Thu 04:58:45 PM 40.0339 -75.4828 342° North 148 170 10,000 600 Climbing New York Center
Thu 04:59:45 PM 40.0856 -75.4997 346° North 165 190 10,600 750 Climbing New York Center
Thu 05:00:45 PM 40.1244 -75.5133 345° North 164 189 11,500 700 Climbing New York Center
Thu 05:01:45 PM 40.1739 -75.5303 345° North 159 183 12,000 250 Climbing New York Center
Thu 05:02:45 PM 40.2231 -75.5528 341° North 178 205 12,000  Level New York Center
Thu 05:03:45 PM 40.2622 -75.6125 311° West 189 217 12,000  Level New York Center
Thu 05:04:45 PM 40.2953 -75.6719 306° West 200 230 12,000  Level New York Center
Thu 05:05:45 PM 40.3347 -75.7239 315° West 205 236 12,000  Level New York Center
Thu 05:06:45 PM 40.3719 -75.7783 312° West 205 236 12,000  Level New York Center
Thu 05:07:45 PM 40.4094 -75.8300 314° West 205 236 12,000 400 Level New York Center
Thu 05:08:45 PM 40.4439 -75.8981 304° West 205 236 12,800 850 Climbing New York Center
Thu 05:09:45 PM 40.4714 -75.9411 310° West 187 215 13,700 600 Climbing New York Center
Thu 05:10:45 PM 40.5022 -75.9953 307° West 176 203 14,000 150 Climbing New York Center
Thu 05:11:45 PM 40.5314 -76.0439 308° West 183 211 14,000  Level New York Center
Thu 05:12:45 PM 40.5664 -76.0983 310° West 188 216 14,000  Level New York Center
Thu 05:13:45 PM 40.6078 -76.1536 315° West 193 222 14,000  Level New York Center
Thu 05:14:45 PM 40.6406 -76.2108 307° West 198 228 14,000  Level New York Center
Thu 05:15:45 PM 40.6714 -76.2625 308° West 198 228 14,000  Level New York Center
Thu 05:16:45 PM 40.7303 -76.2536 North 190 219 14,000  Level New York Center
Thu 05:17:45 PM 40.7972 -76.2481 North 211 243 14,000  Level New York Center
Thu 05:18:45 PM 40.8556 -76.2444 North 217 250 14,000 -50 Level New York Center
Thu 05:19:45 PM 40.9167 -76.2328 North 217 250 13,900 -50 Descending New York Center
Thu 05:20:45 PM 40.9711 -76.2261 North 217 250 13,900  Level New York Center
Thu 05:21:45 PM 41.0297 -76.2228 North 217 250 13,900  Level New York Center
Thu 05:22:45 PM 41.0922 -76.2194 North 212 244 13,900  Level New York Center
Thu 05:23:45 PM 41.1511 -76.2103 North 212 244 13,900  Level New York Center
Thu 05:24:45 PM 41.2094 -76.2094 North 212 244 13,900  Level New York Center
Thu 05:25:45 PM 41.2614 -76.2083 North 212 244 13,900  Level New York Center
Thu 05:26:45 PM 41.3181 -76.2017 North 212 244 13,900  Level New York Center
Thu 05:27:45 PM 41.3828 -76.1986 North 212 244 13,900  Level New York Center
Thu 05:28:45 PM 41.4411 -76.1978 North 212 244 13,900  Level New York Center
Thu 05:29:45 PM 41.5000 -76.1889 North 212 244 13,900 -350 Level New York Center
Thu 05:30:45 PM 41.5564 -76.1850 North 220 253 13,200 -800 Descending New York Center
Thu 05:31:45 PM 41.6250 -76.1878 358° North 232 267 12,300 -1,050 Descending New York Center
Thu 05:32:45 PM 41.7044 -76.1775 North 252 290 11,100 -1,100 Descending New York Center
Thu 05:33:45 PM 41.7733 -76.1719 North 257 296 10,100 -1,000 Descending New York Center
Thu 05:34:45 PM 41.8447 -76.1639 North 257 296 9,100 -1,100 Descending New York Center
Thu 05:35:45 PM 41.9114 -76.1583 North 257 296 7,900 -1,150 Descending New York Center
Thu 05:36:45 PM 41.9803 -76.1553 North 257 296 6,800 -1,250 Descending New York Center
Thu 05:37:45 PM 42.0394 -76.0906 39° Northeast 243 280 5,400 -1,200 Descending New York Center
Thu 05:38:45 PM 42.0897 -76.0358 39° Northeast 236 272 4,400 -850 Descending New York Center
Thu 05:39:45 PM 42.1314 -75.9917 38° Northeast 217 250 3,700 -850 Descending New York Center
Thu 05:40:45 PM 42.1619 -75.9547 42° Northeast 175 201 2,700 -750 Descending New York Center
Thu 05:41:45 PM 42.1850 -75.9511 North 115 132 2,200 -500 Descending New York Center

Login

Don't have an account? Register now (free) for customized features, flight alerts, and more!